createdAt,value
2023-05-13T00:01:39.065Z,70.01
2023-05-13T00:04:09.054Z,70.32
2023-05-13T00:06:38.493Z,70.23
2023-05-13T00:09:07.558Z,69.91
2023-05-13T00:11:36.725Z,69.31
2023-05-13T00:14:07.136Z,69.25
2023-05-13T00:16:36.519Z,68.90
2023-05-13T00:19:05.772Z,68.64
2023-05-13T00:21:35.063Z,68.79
2023-05-13T00:24:04.601Z,69.05
2023-05-13T00:26:33.900Z,69.21
2023-05-13T00:29:03.366Z,69.12
2023-05-13T00:31:32.738Z,69.17
2023-05-13T00:34:02.044Z,68.75
2023-05-13T00:36:31.349Z,68.62
2023-05-13T00:39:01.028Z,68.26
2023-05-13T00:41:30.366Z,68.18
2023-05-13T00:44:00.281Z,68.82
2023-05-13T00:46:33.471Z,69.42
2023-05-13T00:49:03.072Z,69.91
2023-05-13T00:51:33.101Z,69.73
2023-05-13T00:54:02.053Z,70.01
2023-05-13T00:56:31.137Z,70.19
2023-05-13T00:59:00.171Z,70.11
2023-05-13T01:01:56.746Z,70.16
2023-05-13T01:04:43.121Z,70.33
2023-05-13T01:07:36.707Z,70.81
2023-05-13T01:10:37.013Z,70.80
2023-05-13T01:13:14.842Z,70.39
2023-05-13T01:15:50.635Z,70.36
2023-05-13T01:18:45.634Z,70.75
2023-05-13T01:21:15.634Z,70.90
2023-05-13T01:23:45.356Z,70.44
2023-05-13T01:26:14.506Z,70.21
2023-05-13T01:28:43.472Z,70.51
2023-05-13T01:31:14.439Z,70.61
2023-05-13T01:33:44.432Z,70.51
2023-05-13T01:36:14.325Z,70.39
2023-05-13T01:38:44.293Z,70.43
2023-05-13T01:41:13.597Z,70.42
2023-05-13T01:43:42.939Z,70.48
2023-05-13T01:46:16.249Z,70.14
2023-05-13T01:48:45.623Z,69.95
2023-05-13T01:51:15.008Z,70.37
2023-05-13T01:53:44.195Z,70.27
2023-05-13T01:56:13.355Z,70.61
2023-05-13T01:58:42.521Z,70.56
2023-05-13T02:01:11.742Z,70.28
2023-05-13T02:03:40.989Z,70.14
2023-05-13T02:06:10.073Z,70.15
2023-05-13T02:08:39.248Z,70.13
2023-05-13T02:11:08.549Z,70.19
2023-05-13T02:13:37.418Z,70.51
2023-05-13T02:16:06.955Z,70.44
2023-05-13T02:18:35.871Z,70.28
2023-05-13T02:21:04.928Z,70.26
2023-05-13T02:23:33.759Z,70.44
2023-05-13T02:26:02.694Z,70.71
2023-05-13T02:28:31.697Z,70.77
2023-05-13T02:31:01.000Z,70.66
2023-05-13T02:33:30.075Z,70.88
2023-05-13T02:35:58.714Z,71.18
2023-05-13T02:38:27.597Z,71.18
2023-05-13T02:40:56.699Z,71.00
2023-05-13T02:43:27.918Z,70.76
2023-05-13T02:45:57.804Z,70.84
2023-05-13T02:48:26.714Z,71.18
2023-05-13T02:50:55.441Z,71.09
2023-05-13T02:53:24.956Z,70.90
2023-05-13T02:55:55.033Z,70.49
2023-05-13T02:58:24.355Z,70.31
2023-05-13T03:00:53.854Z,70.23
2023-05-13T03:03:23.161Z,69.78
2023-05-13T03:05:52.372Z,69.94
2023-05-13T03:08:21.588Z,70.22
2023-05-13T03:10:52.108Z,70.38
2023-05-13T03:13:21.034Z,70.32
2023-05-13T03:15:50.206Z,70.33
2023-05-13T03:18:19.296Z,70.62
2023-05-13T03:20:48.772Z,70.76
2023-05-13T03:23:18.091Z,70.79
2023-05-13T03:25:47.163Z,70.86
2023-05-13T03:28:16.568Z,70.88
2023-05-13T03:30:45.833Z,71.30
2023-05-13T03:33:14.602Z,71.20
2023-05-13T03:35:44.468Z,70.70
2023-05-13T03:38:13.731Z,70.46
2023-05-13T03:40:42.839Z,70.06
2023-05-13T03:43:12.207Z,69.71
2023-05-13T03:45:41.445Z,69.31
2023-05-13T03:48:10.705Z,69.02
2023-05-13T03:50:40.135Z,68.94
2023-05-13T03:53:11.860Z,69.25
2023-05-13T03:55:40.596Z,69.70
2023-05-13T03:58:15.070Z,69.85
2023-05-13T04:00:47.132Z,70.10
2023-05-13T04:03:17.823Z,70.27
2023-05-13T04:05:47.852Z,70.43
2023-05-13T04:08:16.902Z,70.50
2023-05-13T04:10:46.124Z,70.47
2023-05-13T04:13:15.138Z,70.54
2023-05-13T04:15:44.296Z,70.56
2023-05-13T04:18:13.565Z,70.35
2023-05-13T04:20:42.906Z,70.13
2023-05-13T04:23:11.900Z,70.12
2023-05-13T04:25:41.660Z,70.41
2023-05-13T04:28:10.813Z,70.66
2023-05-13T04:30:39.961Z,70.60
2023-05-13T04:33:09.147Z,70.52
2023-05-13T04:35:38.707Z,70.72
2023-05-13T04:38:08.582Z,70.84
2023-05-13T04:40:38.048Z,70.63
2023-05-13T04:43:07.294Z,70.29
2023-05-13T04:45:37.457Z,69.85
2023-05-13T04:48:06.784Z,69.81
2023-05-13T04:50:36.019Z,69.54
2023-05-13T04:53:05.387Z,69.07
2023-05-13T04:55:35.435Z,68.81
2023-05-13T04:58:04.318Z,68.52
2023-05-13T05:00:33.673Z,68.58
2023-05-13T05:03:02.886Z,67.85
2023-05-13T05:05:32.358Z,67.44
2023-05-13T05:08:01.212Z,67.31
2023-05-13T05:10:30.369Z,67.80
2023-05-13T05:12:59.568Z,68.08
2023-05-13T05:15:30.525Z,67.83
2023-05-13T05:17:59.978Z,67.55
2023-05-13T05:20:29.056Z,67.57
2023-05-13T05:22:57.952Z,67.56
2023-05-13T05:25:27.174Z,66.41
2023-05-13T05:27:57.956Z,65.33
2023-05-13T05:30:27.658Z,64.62
2023-05-13T05:32:57.085Z,64.65
2023-05-13T05:35:26.692Z,64.53
2023-05-13T05:37:56.014Z,64.03
2023-05-13T05:40:24.770Z,63.88
2023-05-13T05:42:53.732Z,64.11
2023-05-13T05:45:23.569Z,64.62
2023-05-13T05:47:55.305Z,64.59
2023-05-13T05:50:25.503Z,63.96
2023-05-13T05:52:54.240Z,63.39
2023-05-13T05:55:23.592Z,63.01
2023-05-13T05:57:52.535Z,62.73
2023-05-13T06:00:21.773Z,62.73
2023-05-13T06:02:51.438Z,62.28
2023-05-13T06:05:20.756Z,61.51
2023-05-13T06:07:50.279Z,61.48
2023-05-13T06:10:19.836Z,61.73
2023-05-13T06:12:49.264Z,61.62
2023-05-13T06:15:18.586Z,61.53
2023-05-13T06:17:47.698Z,61.06
2023-05-13T06:20:16.762Z,60.67
2023-05-13T06:22:45.759Z,59.87
2023-05-13T06:25:15.624Z,59.07
2023-05-13T06:27:44.707Z,59.10
2023-05-13T06:30:13.718Z,59.20
2023-05-13T06:32:53.446Z,59.57
2023-05-13T06:35:26.864Z,60.03
2023-05-13T06:37:56.310Z,59.75
2023-05-13T06:40:25.973Z,59.13
2023-05-13T06:42:55.197Z,58.48
2023-05-13T06:45:26.199Z,58.18
2023-05-13T06:47:55.190Z,57.75
2023-05-13T06:50:24.362Z,57.74
2023-05-13T06:52:53.840Z,57.37
2023-05-13T06:55:23.000Z,56.92
2023-05-13T06:57:52.160Z,56.38
2023-05-13T07:00:21.808Z,55.90
2023-05-13T07:02:52.307Z,55.71
2023-05-13T07:05:21.918Z,56.11
2023-05-13T07:07:54.217Z,56.05
2023-05-13T07:10:24.054Z,55.75
2023-05-13T07:12:53.490Z,55.83
2023-05-13T07:15:22.529Z,55.93
2023-05-13T07:17:51.847Z,55.94
2023-05-13T07:20:24.148Z,54.95
2023-05-13T07:22:53.467Z,54.75
2023-05-13T07:25:23.649Z,54.45
2023-05-13T07:27:52.852Z,54.33
2023-05-13T07:30:22.647Z,53.78
2023-05-13T07:32:54.414Z,53.37
2023-05-13T07:35:23.823Z,53.09
2023-05-13T07:37:54.531Z,52.95
2023-05-13T07:40:24.586Z,52.54
2023-05-13T07:42:54.202Z,52.34
2023-05-13T07:45:24.043Z,52.31
2023-05-13T07:47:53.563Z,52.40
2023-05-13T07:50:23.467Z,52.24
2023-05-13T07:52:52.962Z,51.68
2023-05-13T07:55:22.815Z,50.05
2023-05-13T07:57:52.337Z,48.96
2023-05-13T08:00:22.101Z,48.70
2023-05-13T08:02:51.113Z,48.53
2023-05-13T08:05:20.850Z,48.11
2023-05-13T08:07:50.362Z,47.55
2023-05-13T08:10:19.742Z,47.09
2023-05-13T08:12:54.567Z,46.67
2023-05-13T08:15:27.697Z,46.06
2023-05-13T08:17:57.127Z,44.91
2023-05-13T08:20:30.935Z,44.23
2023-05-13T08:23:02.558Z,44.31
2023-05-13T08:25:32.321Z,43.44
2023-05-13T08:28:03.820Z,43.14
2023-05-13T08:30:34.048Z,43.57
2023-05-13T08:33:03.795Z,43.64
2023-05-13T08:35:33.455Z,44.08
2023-05-13T08:38:05.759Z,45.19
2023-05-13T08:40:35.371Z,45.72
2023-05-13T08:43:07.034Z,46.51
2023-05-13T08:45:40.249Z,46.85
2023-05-13T08:48:11.988Z,47.01
2023-05-13T08:50:42.334Z,46.64
2023-05-13T08:53:13.753Z,46.60
2023-05-13T08:55:44.428Z,46.15
2023-05-13T08:58:14.131Z,46.02
2023-05-13T09:00:43.761Z,45.65
2023-05-13T09:03:14.689Z,45.38
2023-05-13T09:05:44.852Z,44.91
2023-05-13T09:08:14.459Z,45.07
2023-05-13T09:10:43.998Z,44.91
2023-05-13T09:13:14.938Z,44.43
2023-05-13T09:15:45.089Z,43.93
2023-05-13T09:18:18.860Z,44.04
2023-05-13T09:20:55.915Z,43.83
2023-05-13T09:23:27.848Z,43.55
2023-05-13T09:25:58.651Z,43.24
2023-05-13T09:28:27.526Z,42.42
2023-05-13T09:30:57.445Z,41.85
2023-05-13T09:33:33.062Z,41.45
2023-05-13T09:36:06.393Z,41.68
2023-05-13T09:38:39.590Z,41.23
2023-05-13T09:41:11.866Z,39.86
2023-05-13T09:43:41.787Z,39.28
2023-05-13T09:46:12.407Z,39.46
2023-05-13T09:48:44.122Z,39.29
2023-05-13T09:51:17.248Z,39.20
2023-05-13T09:53:48.592Z,39.81
2023-05-13T09:56:22.804Z,41.19
2023-05-13T09:58:53.466Z,41.58
2023-05-13T10:01:22.999Z,41.82
2023-05-13T10:03:52.924Z,41.77
2023-05-13T10:06:25.055Z,41.84
2023-05-13T10:08:58.646Z,42.85
2023-05-13T10:11:30.949Z,43.69
2023-05-13T10:14:06.059Z,43.87
2023-05-13T10:16:36.247Z,44.36
2023-05-13T10:19:06.834Z,43.98
2023-05-13T10:21:37.553Z,42.85
2023-05-13T10:24:08.435Z,43.00
2023-05-13T10:26:38.442Z,43.01
2023-05-13T10:29:07.666Z,42.63
2023-05-13T10:31:37.626Z,42.30
2023-05-13T10:34:07.270Z,41.52
2023-05-13T10:37:02.994Z,40.75
2023-05-13T10:39:50.804Z,40.56
2023-05-13T10:42:22.853Z,40.28
2023-05-13T10:45:02.071Z,40.02
2023-05-13T10:47:34.648Z,39.75
2023-05-13T10:50:08.408Z,38.66
2023-05-13T10:52:47.682Z,37.66
2023-05-13T10:55:20.296Z,36.94
2023-05-13T10:58:10.024Z,36.81
2023-05-13T11:00:42.213Z,36.90
2023-05-13T11:03:12.812Z,36.86
2023-05-13T11:05:48.021Z,36.68
2023-05-13T11:08:56.322Z,37.15
2023-05-13T11:11:30.142Z,37.48
2023-05-13T11:14:09.320Z,37.19
2023-05-13T11:16:39.642Z,37.10
2023-05-13T11:19:19.187Z,36.77
2023-05-13T11:21:56.178Z,36.69
2023-05-13T11:24:27.085Z,36.27
2023-05-13T11:26:59.749Z,35.67
2023-05-13T11:29:34.232Z,35.12
2023-05-13T11:32:06.603Z,34.61
2023-05-13T11:34:36.592Z,34.53
2023-05-13T11:37:06.357Z,34.92
2023-05-13T11:39:36.775Z,34.36
2023-05-13T11:42:12.509Z,33.58
2023-05-13T11:44:49.094Z,33.88
2023-05-13T11:47:30.091Z,34.44
2023-05-13T11:49:59.954Z,34.83
2023-05-13T11:52:29.974Z,34.99
2023-05-13T11:55:00.102Z,35.75
2023-05-13T11:57:35.277Z,35.78
2023-05-13T12:00:08.159Z,36.33
2023-05-13T12:02:40.891Z,36.40
2023-05-13T12:05:12.169Z,36.35
2023-05-13T12:07:42.193Z,36.31
2023-05-13T12:10:11.509Z,36.83
2023-05-13T12:12:46.588Z,37.12
2023-05-13T12:15:21.890Z,37.31
2023-05-13T12:17:55.178Z,37.60
2023-05-13T12:20:28.454Z,37.29
2023-05-13T12:23:04.483Z,37.00
2023-05-13T12:25:47.421Z,37.25
2023-05-13T12:28:19.134Z,37.05
2023-05-13T12:31:01.525Z,37.38
2023-05-13T12:33:42.469Z,37.85
2023-05-13T12:36:39.079Z,38.23
2023-05-13T12:39:11.104Z,37.87
2023-05-13T12:41:43.162Z,37.77
2023-05-13T12:44:16.057Z,38.65
2023-05-13T12:46:53.803Z,38.50
2023-05-13T12:49:23.988Z,38.84
2023-05-13T12:51:53.748Z,38.01
2023-05-13T12:54:23.400Z,38.15
2023-05-13T12:56:54.074Z,37.97
2023-05-13T12:59:23.356Z,38.00
2023-05-13T13:01:53.258Z,37.55
2023-05-13T13:04:23.973Z,37.27
2023-05-13T13:06:53.307Z,37.18
2023-05-13T13:09:23.821Z,36.91
2023-05-13T13:11:53.464Z,36.86
2023-05-13T13:14:26.639Z,36.96
2023-05-13T13:16:55.849Z,36.79
2023-05-13T13:19:25.572Z,36.51
2023-05-13T13:21:55.165Z,35.67
2023-05-13T13:24:24.558Z,36.09
2023-05-13T13:26:54.995Z,35.60
2023-05-13T13:29:25.463Z,36.15
2023-05-13T13:31:54.836Z,35.34
2023-05-13T13:34:24.557Z,34.81
2023-05-13T13:36:56.877Z,35.26
2023-05-13T13:39:28.652Z,34.77
2023-05-13T13:41:58.768Z,34.59
2023-05-13T13:44:29.128Z,34.67
2023-05-13T13:46:59.940Z,34.49
2023-05-13T13:49:29.200Z,33.96
2023-05-13T13:51:58.325Z,34.31
2023-05-13T13:54:27.573Z,34.36
2023-05-13T13:56:57.119Z,34.73
2023-05-13T13:59:26.258Z,34.81
2023-05-13T14:01:57.469Z,34.51
2023-05-13T14:04:28.650Z,34.51
2023-05-13T14:06:58.156Z,34.83
2023-05-13T14:09:28.201Z,34.66
2023-05-13T14:11:57.577Z,35.48
2023-05-13T14:14:27.061Z,35.47
2023-05-13T14:16:57.539Z,35.95
2023-05-13T14:19:30.573Z,36.13
2023-05-13T14:22:01.740Z,35.93
2023-05-13T14:24:31.990Z,35.66
2023-05-13T14:27:02.145Z,36.27
2023-05-13T14:29:33.191Z,36.47
2023-05-13T14:32:04.675Z,36.66
2023-05-13T14:34:35.953Z,36.95
2023-05-13T14:37:06.703Z,36.18
2023-05-13T14:39:36.474Z,36.11
2023-05-13T14:42:06.817Z,35.92
2023-05-13T14:44:37.297Z,35.91
2023-05-13T14:47:07.754Z,36.29
2023-05-13T14:49:37.240Z,35.74
2023-05-13T14:52:06.826Z,35.59
2023-05-13T14:54:38.712Z,35.60
2023-05-13T14:57:08.234Z,35.36
2023-05-13T14:59:38.529Z,34.62
2023-05-13T15:02:07.670Z,34.99
2023-05-13T15:04:37.014Z,35.15
2023-05-13T15:07:07.726Z,35.11
2023-05-13T15:09:36.844Z,34.37
2023-05-13T15:12:06.650Z,34.49
2023-05-13T15:14:35.956Z,34.64
2023-05-13T15:17:06.537Z,33.92
2023-05-13T15:19:36.473Z,33.77
2023-05-13T15:22:06.194Z,33.70
2023-05-13T15:24:35.780Z,33.98
2023-05-13T15:27:05.130Z,34.27
2023-05-13T15:29:34.413Z,34.55
2023-05-13T15:32:04.179Z,34.44
2023-05-13T15:34:33.863Z,34.60
2023-05-13T15:37:03.402Z,34.80
2023-05-13T15:39:32.653Z,34.73
2023-05-13T15:42:02.561Z,34.56
2023-05-13T15:44:32.517Z,34.43
2023-05-13T15:47:05.227Z,35.15
2023-05-13T15:49:35.106Z,35.08
2023-05-13T15:52:07.099Z,35.36
2023-05-13T15:54:36.610Z,35.65
2023-05-13T15:57:05.834Z,35.98
2023-05-13T15:59:36.405Z,35.99
2023-05-13T16:02:05.825Z,35.95
2023-05-13T16:04:35.241Z,36.10
2023-05-13T16:07:04.672Z,36.66
2023-05-13T16:09:34.257Z,36.81
2023-05-13T16:12:04.041Z,36.93
2023-05-13T16:14:33.595Z,37.69
2023-05-13T16:17:03.681Z,38.00
2023-05-13T16:19:33.774Z,38.45
2023-05-13T16:22:27.674Z,38.40
2023-05-13T16:25:01.439Z,39.12
2023-05-13T16:27:31.187Z,39.31
2023-05-13T16:30:01.641Z,39.35
2023-05-13T16:32:33.911Z,39.57
2023-05-13T16:35:05.228Z,39.49
2023-05-13T16:37:36.211Z,40.04
2023-05-13T16:40:05.982Z,39.74
2023-05-13T16:42:35.964Z,40.08
2023-05-13T16:45:06.926Z,40.06
2023-05-13T16:47:36.244Z,40.61
2023-05-13T16:50:06.588Z,41.34
2023-05-13T16:52:35.992Z,41.46
2023-05-13T16:55:06.024Z,44.12
2023-05-13T16:57:35.099Z,45.97
2023-05-13T17:00:04.894Z,47.00
2023-05-13T17:02:35.068Z,47.70
2023-05-13T17:05:05.167Z,48.65
2023-05-13T17:07:34.407Z,49.24
2023-05-13T17:10:03.633Z,49.07
2023-05-13T17:12:33.839Z,49.17
2023-05-13T17:15:04.925Z,49.28
2023-05-13T17:17:34.790Z,49.75
2023-05-13T17:20:06.376Z,50.08
2023-05-13T17:22:38.237Z,50.45
2023-05-13T17:25:08.725Z,50.83
2023-05-13T17:27:39.323Z,50.91
2023-05-13T17:30:09.850Z,51.02
2023-05-13T17:32:40.612Z,51.25
2023-05-13T17:35:11.035Z,51.40
2023-05-13T17:37:41.730Z,52.07
2023-05-13T17:40:11.713Z,52.36
2023-05-13T17:42:41.503Z,53.90
2023-05-13T17:45:11.049Z,55.87
2023-05-13T17:47:41.287Z,57.80
2023-05-13T17:50:11.484Z,58.04
2023-05-13T17:52:42.026Z,58.25
2023-05-13T17:55:11.879Z,58.40
2023-05-13T17:57:41.617Z,58.36
2023-05-13T18:00:12.504Z,59.05
2023-05-13T18:02:43.109Z,59.34
2023-05-13T18:05:12.399Z,59.46
2023-05-13T18:07:41.844Z,59.88
2023-05-13T18:10:11.177Z,60.23
2023-05-13T18:12:40.435Z,60.97
2023-05-13T18:15:09.846Z,60.88
2023-05-13T18:17:39.716Z,61.30
2023-05-13T18:20:09.534Z,61.98
2023-05-13T18:22:39.411Z,62.44
2023-05-13T18:25:10.334Z,62.33
2023-05-13T18:27:39.730Z,62.38
2023-05-13T18:30:10.369Z,62.04
2023-05-13T18:32:39.943Z,62.07
2023-05-13T18:35:10.070Z,62.58
2023-05-13T18:37:40.310Z,62.91
2023-05-13T18:40:10.254Z,62.68
2023-05-13T18:42:40.630Z,62.97
2023-05-13T18:45:11.278Z,63.05
2023-05-13T18:47:41.491Z,62.94
2023-05-13T18:50:12.319Z,62.86
2023-05-13T18:52:42.641Z,63.55
2023-05-13T18:55:12.331Z,63.88
2023-05-13T18:57:41.875Z,64.33
2023-05-13T19:00:11.850Z,64.71
2023-05-13T19:02:42.327Z,65.85
2023-05-13T19:05:12.333Z,66.32
2023-05-13T19:07:44.621Z,66.94
2023-05-13T19:10:14.151Z,66.84
2023-05-13T19:12:44.473Z,67.12
2023-05-13T19:15:14.768Z,67.23
2023-05-13T19:17:44.962Z,67.54
2023-05-13T19:20:15.275Z,67.49
2023-05-13T19:22:46.814Z,67.51
2023-05-13T19:25:16.827Z,67.77
2023-05-13T19:27:49.120Z,67.81
2023-05-13T19:30:19.759Z,67.67
2023-05-13T19:32:50.986Z,67.42
2023-05-13T19:35:20.976Z,67.40
2023-05-13T19:37:51.535Z,67.60
2023-05-13T19:40:21.110Z,67.67
2023-05-13T19:42:51.034Z,67.34
2023-05-13T19:45:21.866Z,67.46
2023-05-13T19:47:52.896Z,67.63
2023-05-13T19:50:23.178Z,66.97
2023-05-13T19:52:54.518Z,66.34
2023-05-13T19:55:24.638Z,65.49
2023-05-13T19:57:55.729Z,65.59
2023-05-13T20:00:25.178Z,66.02
2023-05-13T20:02:55.236Z,65.61
2023-05-13T20:05:24.581Z,65.48
2023-05-13T20:07:53.998Z,65.80
2023-05-13T20:10:23.975Z,66.61
2023-05-13T20:12:54.458Z,66.79
2023-05-13T20:15:24.624Z,66.15
2023-05-13T20:17:54.680Z,65.71
2023-05-13T20:20:25.609Z,65.91
2023-05-13T20:22:56.314Z,66.18
2023-05-13T20:25:26.656Z,65.92
2023-05-13T20:27:56.279Z,65.89
2023-05-13T20:30:26.264Z,66.37
2023-05-13T20:32:56.364Z,67.04
2023-05-13T20:35:28.085Z,67.27
2023-05-13T20:37:59.260Z,67.23
2023-05-13T20:40:28.739Z,67.46
2023-05-13T20:43:02.440Z,67.92
2023-05-13T20:45:32.352Z,67.78
2023-05-13T20:48:03.349Z,67.23
2023-05-13T20:50:34.173Z,67.35
2023-05-13T20:53:03.755Z,67.80
2023-05-13T20:55:34.540Z,68.14
2023-05-13T20:58:03.816Z,68.47
2023-05-13T21:00:33.456Z,68.62
2023-05-13T21:03:03.090Z,68.45
2023-05-13T21:05:33.171Z,68.65
2023-05-13T21:08:02.433Z,68.57
2023-05-13T21:10:31.744Z,68.21
2023-05-13T21:13:01.716Z,68.52
2023-05-13T21:15:31.076Z,69.21
2023-05-13T21:18:01.525Z,69.46
2023-05-13T21:20:33.017Z,69.66
2023-05-13T21:23:02.960Z,69.70
2023-05-13T21:25:32.947Z,70.10
2023-05-13T21:28:04.082Z,70.46
2023-05-13T21:30:33.590Z,70.63
2023-05-13T21:33:05.412Z,70.43
2023-05-13T21:35:35.983Z,70.39
2023-05-13T21:38:12.052Z,70.71
2023-05-13T21:40:43.791Z,70.94
2023-05-13T21:43:12.827Z,70.81
2023-05-13T21:45:42.176Z,70.59
2023-05-13T21:48:11.391Z,70.30
2023-05-13T21:50:40.748Z,70.36
2023-05-13T21:53:11.390Z,70.40
2023-05-13T21:55:41.548Z,70.20
2023-05-13T21:58:10.950Z,70.05
2023-05-13T22:00:40.927Z,70.20
2023-05-13T22:03:10.356Z,70.53
2023-05-13T22:05:44.746Z,70.57
2023-05-13T22:08:15.069Z,70.19
2023-05-13T22:10:44.742Z,70.48
2023-05-13T22:13:14.112Z,70.63
2023-05-13T22:15:44.315Z,70.84
2023-05-13T22:18:15.487Z,70.59
2023-05-13T22:20:45.505Z,70.58
2023-05-13T22:23:15.394Z,70.85
2023-05-13T22:25:45.839Z,70.98
2023-05-13T22:28:15.388Z,70.86
2023-05-13T22:30:47.602Z,70.68
2023-05-13T22:33:17.280Z,70.77
2023-05-13T22:35:47.319Z,71.08
2023-05-13T22:38:17.395Z,71.15
2023-05-13T22:40:47.622Z,70.85
2023-05-13T22:43:16.783Z,70.25
2023-05-13T22:45:46.367Z,70.14
2023-05-13T22:48:15.749Z,70.13
2023-05-13T22:50:44.900Z,69.92
2023-05-13T22:53:14.051Z,69.78
2023-05-13T22:55:43.147Z,69.49
2023-05-13T22:58:12.425Z,69.63
2023-05-13T23:00:41.733Z,69.35
2023-05-13T23:03:10.891Z,69.07
2023-05-13T23:05:40.259Z,69.12
2023-05-13T23:08:09.343Z,69.88
2023-05-13T23:10:38.591Z,70.28
2023-05-13T23:13:08.115Z,70.43
2023-05-13T23:15:40.105Z,70.27
2023-05-13T23:18:09.228Z,70.62
2023-05-13T23:20:38.453Z,71.09
2023-05-13T23:23:08.325Z,71.29
2023-05-13T23:25:37.282Z,71.39
2023-05-13T23:28:06.425Z,71.53
2023-05-13T23:30:36.530Z,71.77
2023-05-13T23:33:05.465Z,72.00
2023-05-13T23:35:35.394Z,72.30
2023-05-13T23:38:04.961Z,72.39
2023-05-13T23:40:34.553Z,72.01
2023-05-13T23:43:04.046Z,72.07
2023-05-13T23:45:33.614Z,72.31
2023-05-13T23:48:02.918Z,72.42
2023-05-13T23:50:32.220Z,72.36
2023-05-13T23:53:01.691Z,72.50
2023-05-13T23:55:30.917Z,72.74
2023-05-13T23:57:59.782Z,72.90
